createdAt,value
2019-05-18T00:00:50.078Z,7.0
2019-05-18T00:02:50.218Z,7.0
2019-05-18T00:04:49.574Z,7.1
2019-05-18T00:06:49.716Z,7.2
2019-05-18T00:08:49.814Z,6.8
2019-05-18T00:10:49.834Z,6.6
2019-05-18T00:12:49.853Z,6.6
2019-05-18T00:14:49.856Z,7.1
2019-05-18T00:16:50.063Z,7.0
2019-05-18T00:18:50.025Z,7.3
2019-05-18T00:20:50.045Z,7.3
2019-05-18T00:22:50.156Z,6.9
2019-05-18T00:24:50.127Z,6.6
2019-05-18T00:26:50.400Z,6.8
2019-05-18T00:28:50.459Z,6.8
2019-05-18T00:30:50.485Z,6.9
2019-05-18T00:32:49.598Z,6.8
2019-05-18T00:34:49.908Z,6.6
2019-05-18T00:36:50.174Z,7.0
2019-05-18T00:38:50.244Z,7.3
2019-05-18T00:40:50.332Z,7.3
2019-05-18T00:42:50.373Z,7.4
2019-05-18T00:44:50.378Z,7.7
2019-05-18T00:46:49.780Z,7.7
2019-05-18T00:48:49.768Z,7.9
2019-05-18T00:50:49.786Z,7.9
2019-05-18T00:52:49.895Z,7.5
2019-05-18T00:54:49.979Z,8.1
2019-05-18T00:56:50.302Z,7.9
2019-05-18T00:58:50.318Z,7.9
2019-05-18T01:00:50.422Z,8.5
2019-05-18T01:02:49.599Z,8.1
2019-05-18T01:04:50.041Z,7.9
2019-05-18T01:06:50.163Z,7.9
2019-05-18T01:08:50.306Z,8.2
2019-05-18T01:10:50.330Z,8.2
2019-05-18T01:12:50.325Z,8.2
2019-05-18T01:14:50.419Z,9.7
2019-05-18T01:16:49.623Z,9.1
2019-05-18T01:18:49.656Z,9.1
2019-05-18T01:20:49.825Z,9.2
2019-05-18T01:22:50.035Z,8.7
2019-05-18T01:24:50.176Z,8.9
2019-05-18T01:26:50.309Z,8.9
2019-05-18T01:28:50.465Z,9.6
2019-05-18T01:30:50.511Z,9.7
2019-05-18T01:32:49.599Z,9.3
2019-05-18T01:34:50.145Z,10.5
2019-05-18T01:36:50.270Z,9.7
2019-05-18T01:38:50.374Z,9.7
2019-05-18T01:40:50.481Z,10.5
2019-05-18T01:42:50.460Z,10.5
2019-05-18T01:44:49.564Z,10.4
2019-05-18T01:46:49.689Z,11.1
2019-05-18T01:48:49.731Z,11.1
2019-05-18T01:50:49.728Z,10.6
2019-05-18T01:52:49.807Z,10.6
2019-05-18T01:54:49.945Z,10.6
2019-05-18T01:56:50.159Z,10.8
2019-05-18T01:58:50.197Z,10.8
2019-05-18T02:00:50.289Z,10.4
2019-05-18T02:02:50.327Z,11.6
2019-05-18T02:04:49.828Z,11.6
2019-05-18T02:06:50.027Z,10.9
2019-05-18T02:08:50.397Z,10.9
2019-05-18T02:10:50.446Z,10.7
2019-05-18T02:12:50.421Z,11.4
2019-05-18T02:14:50.362Z,11.2
2019-05-18T02:16:50.447Z,11.2
2019-05-18T02:18:50.434Z,10.9
2019-05-18T02:20:50.426Z,10.8
2019-05-18T02:22:49.534Z,11.0
2019-05-18T02:24:49.595Z,11.2
2019-05-18T02:26:49.743Z,11.2
2019-05-18T02:28:49.692Z,11.5
2019-05-18T02:30:49.597Z,11.3
2019-05-18T02:32:49.789Z,11.4
2019-05-18T02:34:50.338Z,10.4
2019-05-18T02:36:49.769Z,10.4
2019-05-18T02:38:49.833Z,11.3
2019-05-18T02:40:49.999Z,10.8
2019-05-18T02:42:50.021Z,10.8
2019-05-18T02:44:50.109Z,10.9
2019-05-18T02:46:50.282Z,10.9
2019-05-18T02:48:51.027Z,11.3
2019-05-18T02:50:50.190Z,10.0
2019-05-18T02:52:50.239Z,10.0
2019-05-18T02:54:50.307Z,10.0
2019-05-18T02:56:49.546Z,10.0
2019-05-18T02:58:50.531Z,9.6
2019-05-18T03:00:49.602Z,10.3
2019-05-18T03:02:49.609Z,9.9
2019-05-18T03:04:50.086Z,10.2
2019-05-18T03:06:50.263Z,10.2
2019-05-18T03:08:50.336Z,10.6
2019-05-18T03:10:50.475Z,10.8
2019-05-18T03:12:50.449Z,10.1
2019-05-18T03:14:49.547Z,10.1
2019-05-18T03:16:49.879Z,10.8
2019-05-18T03:19:07.905Z,10.6
2019-05-18T03:20:50.188Z,10.1
2019-05-18T03:22:50.273Z,10.1
2019-05-18T03:24:50.386Z,9.7
2019-05-18T03:26:49.631Z,9.6
2019-05-18T03:28:49.729Z,10.0
2019-05-18T03:30:49.769Z,9.6
2019-05-18T03:32:49.842Z,10.1
2019-05-18T03:34:50.615Z,10.1
2019-05-18T03:36:49.876Z,9.6
2019-05-18T03:38:49.924Z,9.6
2019-05-18T03:40:49.994Z,9.9
2019-05-18T03:42:50.043Z,9.9
2019-05-18T03:44:50.155Z,9.4
2019-05-18T03:46:50.345Z,10.0
2019-05-18T03:48:50.428Z,9.6
2019-05-18T03:50:49.537Z,9.6
2019-05-18T03:52:50.514Z,9.6
2019-05-18T03:54:49.615Z,10.0
2019-05-18T03:56:49.778Z,10.5
2019-05-18T03:58:49.817Z,10.5
2019-05-18T04:00:49.855Z,10.7
2019-05-18T04:02:49.955Z,10.7
2019-05-18T04:04:50.316Z,11.5
2019-05-18T04:06:50.448Z,11.2
2019-05-18T04:08:50.485Z,11.2
2019-05-18T04:10:49.626Z,11.9
2019-05-18T04:12:49.619Z,11.9
2019-05-18T04:14:49.727Z,11.4
2019-05-18T04:16:49.966Z,11.0
2019-05-18T04:18:50.165Z,11.0
2019-05-18T04:20:50.209Z,11.4
2019-05-18T04:22:50.272Z,10.9
2019-05-18T04:24:50.392Z,10.9
2019-05-18T04:26:50.169Z,10.4
2019-05-18T04:28:50.230Z,10.4
2019-05-18T04:30:50.356Z,9.6
2019-05-18T04:32:50.455Z,9.6
2019-05-18T04:34:49.955Z,9.6
2019-05-18T04:36:50.134Z,9.1
2019-05-18T04:38:50.155Z,8.9
2019-05-18T04:40:50.296Z,8.9
2019-05-18T04:42:50.344Z,9.1
2019-05-18T04:44:50.454Z,8.9
2019-05-18T04:46:49.858Z,9.2
2019-05-18T04:48:49.993Z,8.2
2019-05-18T04:50:50.130Z,8.2
2019-05-18T04:52:50.300Z,9.3
2019-05-18T04:54:50.381Z,9.3
2019-05-18T04:56:49.567Z,9.3
2019-05-18T04:58:49.675Z,9.0
2019-05-18T05:00:49.802Z,9.0
2019-05-18T05:02:49.869Z,8.4
2019-05-18T05:04:56.516Z,8.7
2019-05-18T05:06:50.140Z,8.1
2019-05-18T05:08:50.287Z,8.2
2019-05-18T05:10:50.282Z,8.2
2019-05-18T05:12:50.413Z,8.1
2019-05-18T05:14:50.516Z,8.0
2019-05-18T05:16:49.740Z,8.4
2019-05-18T05:18:49.781Z,8.4
2019-05-18T05:20:49.792Z,8.2
2019-05-18T05:22:49.876Z,8.2
2019-05-18T05:24:49.948Z,8.0
2019-05-18T05:26:50.106Z,7.7
2019-05-18T05:28:50.325Z,7.7
2019-05-18T05:30:50.326Z,8.0
2019-05-18T05:32:50.434Z,7.9
2019-05-18T05:34:49.713Z,7.1
2019-05-18T05:36:50.557Z,6.6
2019-05-18T05:38:50.488Z,6.6
2019-05-18T05:40:50.527Z,6.6
2019-05-18T05:42:49.625Z,6.2
2019-05-18T05:44:49.684Z,6.8
2019-05-18T05:46:49.983Z,6.8
2019-05-18T05:48:49.978Z,6.8
2019-05-18T05:50:50.013Z,6.7
2019-05-18T05:52:50.105Z,6.6
2019-05-18T05:54:50.076Z,6.6
2019-05-18T05:56:50.180Z,6.6
2019-05-18T05:58:50.194Z,6.2
2019-05-18T06:00:50.192Z,6.1
2019-05-18T06:02:50.281Z,5.8
2019-05-18T06:04:49.719Z,5.8
2019-05-18T06:06:49.907Z,5.8
2019-05-18T06:08:49.921Z,5.7
2019-05-18T06:10:49.973Z,6.2
2019-05-18T06:12:50.025Z,5.9
2019-05-18T06:14:50.016Z,5.9
2019-05-18T06:16:50.220Z,5.7
2019-05-18T06:18:50.260Z,5.2
2019-05-18T06:20:52.017Z,5.2
2019-05-18T06:22:50.251Z,5.1
2019-05-18T06:24:50.252Z,5.2
2019-05-18T06:26:50.361Z,5.2
2019-05-18T06:28:50.415Z,4.7
2019-05-18T06:30:50.468Z,4.9
2019-05-18T06:32:50.435Z,5.2
2019-05-18T06:34:49.713Z,4.6
2019-05-18T06:36:49.935Z,4.6
2019-05-18T06:38:49.978Z,5.1
2019-05-18T06:40:50.077Z,4.8
2019-05-18T06:42:50.208Z,5.0
2019-05-18T06:44:50.250Z,5.0
2019-05-18T06:46:50.487Z,4.6
2019-05-18T06:48:50.488Z,5.1
2019-05-18T06:50:49.619Z,4.8
2019-05-18T06:52:49.571Z,4.8
2019-05-18T06:54:49.643Z,4.8
2019-05-18T06:56:49.880Z,5.0
2019-05-18T06:58:49.953Z,4.4
2019-05-18T07:00:50.000Z,4.5
2019-05-18T07:02:50.027Z,4.5
2019-05-18T07:04:50.450Z,4.6
2019-05-18T07:06:50.509Z,4.6
2019-05-18T07:08:49.572Z,4.7
2019-05-18T07:10:49.556Z,4.5
2019-05-18T07:12:49.573Z,4.0
2019-05-18T07:14:49.645Z,4.4
2019-05-18T07:16:49.973Z,4.4
2019-05-18T07:18:50.134Z,4.1
2019-05-18T07:20:50.149Z,4.1
2019-05-18T07:22:50.282Z,3.8
2019-05-18T07:24:50.358Z,3.8
2019-05-18T07:26:50.433Z,3.6
2019-05-18T07:28:49.570Z,3.8
2019-05-18T07:30:49.593Z,3.8
2019-05-18T07:32:49.572Z,3.6
2019-05-18T07:34:50.047Z,3.6
2019-05-18T07:36:50.203Z,3.7
2019-05-18T07:38:50.310Z,3.9
2019-05-18T07:40:50.410Z,3.9
2019-05-18T07:42:49.641Z,3.9
2019-05-18T07:44:49.754Z,3.9
2019-05-18T07:46:49.865Z,3.8
2019-05-18T07:48:50.009Z,3.7
2019-05-18T07:50:50.081Z,3.6
2019-05-18T07:52:50.152Z,3.4
2019-05-18T07:54:50.214Z,3.4
2019-05-18T07:56:50.435Z,3.7
2019-05-18T07:58:49.532Z,3.6
2019-05-18T08:00:49.591Z,3.5
2019-05-18T08:02:49.707Z,3.8
2019-05-18T08:04:50.050Z,3.8
2019-05-18T08:06:50.266Z,3.3
2019-05-18T08:08:50.316Z,3.5
2019-05-18T08:10:50.467Z,3.4
2019-05-18T08:12:49.558Z,3.4
2019-05-18T08:14:49.542Z,3.6
2019-05-18T08:16:49.772Z,3.4
2019-05-18T08:18:49.807Z,4.1
2019-05-18T08:20:49.813Z,4.1
2019-05-18T08:22:49.850Z,4.2
2019-05-18T08:24:49.824Z,4.1
2019-05-18T08:26:50.080Z,3.4
2019-05-18T08:28:50.090Z,3.1
2019-05-18T08:30:50.169Z,3.1
2019-05-18T08:32:50.378Z,3.3
2019-05-18T08:34:49.768Z,3.7
2019-05-18T08:36:49.921Z,3.6
2019-05-18T08:38:49.895Z,3.6
2019-05-18T08:40:50.065Z,3.8
2019-05-18T08:42:50.216Z,3.7
2019-05-18T08:44:50.374Z,3.7
2019-05-18T08:46:49.685Z,3.6
2019-05-18T08:48:49.704Z,3.4
2019-05-18T08:50:49.776Z,3.1
2019-05-18T08:52:49.815Z,3.1
2019-05-18T08:54:49.865Z,3.2
2019-05-18T08:56:50.075Z,3.5
2019-05-18T08:58:50.154Z,3.5
2019-05-18T09:00:50.309Z,3.2
2019-05-18T09:02:50.366Z,3.0
2019-05-18T09:04:49.828Z,2.8
2019-05-18T09:06:49.979Z,3.1
2019-05-18T09:08:49.913Z,3.1
2019-05-18T09:10:49.996Z,2.8
2019-05-18T09:12:49.995Z,2.5
2019-05-18T09:14:50.049Z,2.6
2019-05-18T09:16:50.286Z,2.8
2019-05-18T09:18:50.312Z,2.5
2019-05-18T09:20:50.296Z,2.5
2019-05-18T09:22:50.328Z,2.5
2019-05-18T09:24:50.352Z,2.7
2019-05-18T09:26:49.595Z,2.6
2019-05-18T09:28:49.640Z,2.7
2019-05-18T09:30:49.698Z,2.7
2019-05-18T09:32:49.893Z,2.5
2019-05-18T09:34:50.342Z,2.2
2019-05-18T09:36:49.611Z,2.4
2019-05-18T09:38:49.609Z,2.4
2019-05-18T09:40:49.707Z,2.9
2019-05-18T09:42:49.719Z,2.8
2019-05-18T09:44:49.869Z,3.1
2019-05-18T09:46:50.052Z,3.1
2019-05-18T09:48:50.174Z,2.8
2019-05-18T09:50:50.185Z,2.6
2019-05-18T09:52:50.206Z,2.5
2019-05-18T09:54:50.211Z,2.8
2019-05-18T09:56:50.410Z,2.8
2019-05-18T09:58:50.473Z,2.8
2019-05-18T10:00:50.509Z,2.7
2019-05-18T10:02:50.492Z,2.9
2019-05-18T10:04:49.929Z,2.7
2019-05-18T10:06:50.275Z,2.9
2019-05-18T10:08:50.273Z,2.9
2019-05-18T10:10:50.300Z,2.6
2019-05-18T10:12:50.355Z,2.4
2019-05-18T10:14:50.290Z,3.1
2019-05-18T10:16:50.411Z,3.1
2019-05-18T10:18:49.574Z,2.5
2019-05-18T10:20:50.535Z,2.8
2019-05-18T10:23:12.170Z,2.7
2019-05-18T10:24:49.772Z,2.6
2019-05-18T10:26:49.908Z,2.7
2019-05-18T10:28:49.984Z,2.7
2019-05-18T10:30:50.023Z,2.5
2019-05-18T10:32:50.072Z,2.5
2019-05-18T10:34:50.402Z,2.5
2019-05-18T10:36:50.508Z,2.6
2019-05-18T10:38:49.553Z,2.6
2019-05-18T10:40:49.752Z,2.4
2019-05-18T10:42:49.801Z,2.1
2019-05-18T10:44:49.900Z,2.5
2019-05-18T10:46:50.003Z,2.5
2019-05-18T10:48:50.026Z,2.3
2019-05-18T10:50:50.007Z,2.0
2019-05-18T10:52:50.131Z,2.1
2019-05-18T10:54:50.247Z,2.1
2019-05-18T10:56:50.392Z,2.0
2019-05-18T10:58:50.479Z,2.1
2019-05-18T11:00:50.505Z,2.4
2019-05-18T11:02:50.577Z,2.0
2019-05-18T11:04:50.196Z,2.0
2019-05-18T11:06:50.346Z,1.9
2019-05-18T11:08:50.391Z,1.8
2019-05-18T11:10:50.438Z,1.8
2019-05-18T11:12:50.448Z,2.2
2019-05-18T11:14:50.485Z,2.2
2019-05-18T11:16:49.687Z,2.1
2019-05-18T11:18:49.744Z,2.1
2019-05-18T11:20:49.877Z,2.1
2019-05-18T11:22:49.901Z,2.2
2019-05-18T11:24:49.824Z,2.0
2019-05-18T11:26:50.013Z,2.0
2019-05-18T11:28:50.082Z,1.9
2019-05-18T11:30:50.164Z,1.9
2019-05-18T11:32:50.219Z,2.0
2019-05-18T11:34:49.620Z,2.0
2019-05-18T11:36:49.776Z,2.0
2019-05-18T11:38:49.781Z,1.8
2019-05-18T11:40:49.841Z,1.8
2019-05-18T11:42:49.933Z,1.9
2019-05-18T11:44:49.900Z,1.7
2019-05-18T11:46:50.178Z,1.9
2019-05-18T11:48:50.164Z,1.8
2019-05-18T11:50:50.195Z,1.8
2019-05-18T11:52:50.307Z,1.9
2019-05-18T11:54:50.310Z,1.9
2019-05-18T11:56:50.554Z,1.9
2019-05-18T11:58:49.932Z,2.0
2019-05-18T12:00:49.896Z,2.0
2019-05-18T12:02:49.973Z,2.0
2019-05-18T12:04:50.290Z,1.9
2019-05-18T12:06:49.581Z,1.9
2019-05-18T12:08:49.627Z,1.9
2019-05-18T12:10:49.625Z,1.9
2019-05-18T12:12:49.719Z,1.7
2019-05-18T12:14:49.724Z,1.7
2019-05-18T12:16:50.019Z,1.8
2019-05-18T12:18:50.101Z,1.8
2019-05-18T12:20:50.210Z,1.7
2019-05-18T12:22:50.256Z,1.7
2019-05-18T12:24:50.374Z,1.6
2019-05-18T12:26:49.658Z,1.9
2019-05-18T12:28:49.714Z,1.6
2019-05-18T12:30:50.045Z,1.6
2019-05-18T12:32:50.230Z,1.7
2019-05-18T12:34:49.625Z,1.8
2019-05-18T12:36:49.693Z,1.8
2019-05-18T12:38:49.729Z,1.7
2019-05-18T12:40:49.706Z,1.5
2019-05-18T12:42:49.710Z,1.5
2019-05-18T12:44:49.854Z,1.7
2019-05-18T12:46:50.163Z,1.7
2019-05-18T12:48:49.732Z,1.7
2019-05-18T12:50:49.637Z,1.7
2019-05-18T12:52:49.704Z,1.9
2019-05-18T12:54:49.619Z,1.7
2019-05-18T12:56:49.854Z,1.7
2019-05-18T12:58:49.976Z,1.6
2019-05-18T13:00:49.963Z,1.6
2019-05-18T13:02:49.932Z,1.7
2019-05-18T13:04:50.285Z,1.8
2019-05-18T13:06:50.411Z,1.9
2019-05-18T13:08:50.510Z,1.6
2019-05-18T13:10:49.628Z,1.9
2019-05-18T13:12:49.594Z,1.9
2019-05-18T13:14:49.613Z,1.7
2019-05-18T13:16:49.786Z,1.8
2019-05-18T13:18:49.779Z,1.8
2019-05-18T13:20:49.848Z,1.8
2019-05-18T13:22:49.928Z,1.7
2019-05-18T13:24:52.432Z,1.7
2019-05-18T13:26:49.565Z,1.7
2019-05-18T13:28:49.563Z,1.9
2019-05-18T13:30:49.595Z,1.9
2019-05-18T13:32:49.602Z,1.8
2019-05-18T13:34:50.032Z,1.8
2019-05-18T13:36:50.132Z,2.1
2019-05-18T13:38:50.195Z,2.1
2019-05-18T13:40:50.149Z,1.8
2019-05-18T13:42:50.287Z,1.8
2019-05-18T13:44:50.393Z,1.8
2019-05-18T13:46:50.478Z,1.8
2019-05-18T13:48:49.686Z,1.8
2019-05-18T13:50:49.619Z,1.7
2019-05-18T13:52:49.709Z,1.9
2019-05-18T13:55:03.455Z,1.9
2019-05-18T13:56:49.845Z,1.7
2019-05-18T13:58:49.833Z,1.7
2019-05-18T14:00:49.886Z,1.9
2019-05-18T14:02:49.924Z,2.1
2019-05-18T14:04:50.388Z,2.0
2019-05-18T14:06:49.594Z,2.0
2019-05-18T14:08:49.721Z,2.0
2019-05-18T14:10:49.832Z,1.9
2019-05-18T14:12:49.934Z,1.7
2019-05-18T14:14:50.038Z,1.7
2019-05-18T14:16:50.211Z,1.8
2019-05-18T14:18:50.253Z,1.8
2019-05-18T14:20:50.339Z,1.7
2019-05-18T14:22:50.399Z,1.8
2019-05-18T14:24:50.497Z,1.9
2019-05-18T14:26:49.733Z,1.9
2019-05-18T14:28:49.714Z,2.0
2019-05-18T14:30:49.774Z,1.9
2019-05-18T14:32:49.826Z,1.9
2019-05-18T14:34:50.283Z,1.9
2019-05-18T14:36:50.461Z,1.9
2019-05-18T14:38:49.685Z,1.9
2019-05-18T14:40:49.797Z,1.7
2019-05-18T14:42:49.830Z,1.8
2019-05-18T14:44:49.898Z,1.8
2019-05-18T14:46:50.096Z,1.8
2019-05-18T14:48:50.220Z,2.0
2019-05-18T14:50:50.271Z,1.9
2019-05-18T14:52:50.393Z,2.2
2019-05-18T14:54:49.516Z,2.1
2019-05-18T14:56:49.636Z,2.1
2019-05-18T14:58:49.727Z,2.2
2019-05-18T15:00:49.771Z,2.1
2019-05-18T15:02:49.839Z,1.9
2019-05-18T15:04:56.992Z,2.1
2019-05-18T15:06:50.236Z,2.1
2019-05-18T15:08:50.418Z,2.1
2019-05-18T15:10:50.517Z,2.2
2019-05-18T15:12:49.579Z,1.7
2019-05-18T15:14:49.555Z,1.7
2019-05-18T15:16:53.233Z,1.8
2019-05-18T15:18:50.323Z,2.0
2019-05-18T15:20:50.393Z,2.0
2019-05-18T15:22:50.464Z,2.3
2019-05-18T15:24:49.603Z,1.9
2019-05-18T15:26:49.990Z,1.9
2019-05-18T15:28:49.943Z,1.7
2019-05-18T15:30:49.896Z,1.7
2019-05-18T15:32:49.971Z,1.8
2019-05-18T15:34:50.258Z,1.6
2019-05-18T15:36:50.515Z,1.6
2019-05-18T15:38:50.530Z,1.5
2019-05-18T15:40:49.535Z,1.5
2019-05-18T15:42:49.739Z,1.5
2019-05-18T15:44:49.771Z,1.5
2019-05-18T15:46:49.843Z,1.7
2019-05-18T15:48:49.982Z,1.8
2019-05-18T15:50:50.125Z,1.8
2019-05-18T15:52:50.169Z,1.8
2019-05-18T15:54:50.204Z,1.7
2019-05-18T15:56:49.612Z,1.6
2019-05-18T15:58:49.600Z,1.5
2019-05-18T16:00:49.719Z,1.5
2019-05-18T16:02:49.841Z,1.5
2019-05-18T16:04:50.348Z,1.5
2019-05-18T16:06:50.438Z,1.4
2019-05-18T16:08:50.469Z,1.4
2019-05-18T16:10:50.505Z,1.3
2019-05-18T16:12:50.463Z,1.3
2019-05-18T16:14:49.537Z,1.6
2019-05-18T16:16:55.210Z,1.6
2019-05-18T16:18:50.323Z,1.5
2019-05-18T16:20:50.352Z,1.5
2019-05-18T16:22:50.313Z,1.5
2019-05-18T16:24:50.423Z,1.6
2019-05-18T16:26:49.599Z,1.7
2019-05-18T16:28:49.623Z,1.5
2019-05-18T16:30:49.692Z,1.6
2019-05-18T16:32:49.859Z,1.6
2019-05-18T16:34:50.270Z,1.8
2019-05-18T16:36:50.473Z,1.8
2019-05-18T16:38:49.545Z,1.7
2019-05-18T16:40:49.543Z,1.6
2019-05-18T16:42:49.708Z,1.6
2019-05-18T16:44:49.795Z,1.5
2019-05-18T16:46:49.898Z,1.5
2019-05-18T16:48:49.968Z,1.9
2019-05-18T16:50:50.043Z,1.9
2019-05-18T16:52:50.092Z,1.6
2019-05-18T16:54:50.207Z,1.8
2019-05-18T16:56:50.486Z,1.8
2019-05-18T16:58:49.526Z,1.7
2019-05-18T17:00:49.514Z,1.8
2019-05-18T17:02:49.676Z,1.8
2019-05-18T17:04:50.068Z,1.8
2019-05-18T17:06:50.380Z,1.7
2019-05-18T17:08:50.410Z,1.7
2019-05-18T17:10:49.551Z,1.7
2019-05-18T17:12:49.585Z,1.9
2019-05-18T17:14:49.641Z,1.7
2019-05-18T17:16:49.937Z,2.0
2019-05-18T17:18:49.982Z,2.0
2019-05-18T17:20:50.061Z,2.0
2019-05-18T17:22:50.186Z,2.1
2019-05-18T17:24:50.214Z,1.9
2019-05-18T17:26:53.737Z,1.9
2019-05-18T17:28:49.818Z,2.1
2019-05-18T17:30:49.932Z,2.1
2019-05-18T17:32:50.010Z,2.0
2019-05-18T17:34:50.417Z,1.9
2019-05-18T17:36:52.802Z,1.8
2019-05-18T17:38:49.907Z,2.0
2019-05-18T17:40:50.001Z,2.0
2019-05-18T17:42:50.220Z,1.8
2019-05-18T17:44:50.255Z,2.0
2019-05-18T17:46:50.498Z,1.9
2019-05-18T17:48:49.629Z,1.9
2019-05-18T17:50:49.668Z,2.6
2019-05-18T17:52:49.767Z,2.4
2019-05-18T17:54:49.786Z,2.0
2019-05-18T17:56:49.885Z,2.1
2019-05-18T17:58:49.991Z,1.9
2019-05-18T18:00:50.108Z,1.9
2019-05-18T18:02:50.207Z,2.2
2019-05-18T18:04:49.602Z,2.3
2019-05-18T18:06:49.842Z,2.3
2019-05-18T18:08:49.825Z,2.4
2019-05-18T18:10:49.814Z,2.4
2019-05-18T18:12:49.931Z,2.2
2019-05-18T18:14:49.974Z,2.0
2019-05-18T18:16:50.113Z,2.7
2019-05-18T18:18:50.147Z,2.7
2019-05-18T18:20:50.260Z,2.3
2019-05-18T18:22:50.261Z,2.4
2019-05-18T18:24:50.289Z,2.4
2019-05-18T18:26:49.574Z,2.5
2019-05-18T18:28:49.583Z,2.5
2019-05-18T18:30:49.692Z,2.2
2019-05-18T18:32:49.799Z,2.5
2019-05-18T18:34:50.216Z,2.6
2019-05-18T18:36:50.373Z,2.2
2019-05-18T18:38:50.428Z,2.2
2019-05-18T18:40:50.403Z,2.5
2019-05-18T18:42:49.577Z,2.4
2019-05-18T18:44:49.643Z,2.6
2019-05-18T18:46:49.929Z,2.6
2019-05-18T18:48:50.004Z,3.7
2019-05-18T18:50:50.067Z,2.8
2019-05-18T18:52:50.325Z,2.8
2019-05-18T18:54:50.341Z,2.8
2019-05-18T18:56:49.599Z,2.5
2019-05-18T18:58:49.611Z,2.6
2019-05-18T19:00:49.603Z,2.6
2019-05-18T19:02:49.654Z,2.6
2019-05-18T19:04:49.990Z,2.9
2019-05-18T19:06:50.171Z,2.9
2019-05-18T19:08:50.230Z,2.9
2019-05-18T19:10:50.193Z,3.0
2019-05-18T19:12:50.222Z,2.9
2019-05-18T19:14:50.289Z,2.9
2019-05-18T19:16:50.392Z,3.6
2019-05-18T19:18:49.543Z,3.9
2019-05-18T19:20:49.662Z,3.8
2019-05-18T19:22:49.686Z,3.3
2019-05-18T19:24:49.749Z,3.4
2019-05-18T19:26:50.043Z,3.4
2019-05-18T19:28:50.232Z,3.6
2019-05-18T19:30:50.253Z,4.0
2019-05-18T19:32:50.426Z,5.5
2019-05-18T19:34:49.884Z,4.3
2019-05-18T19:36:50.033Z,4.3
2019-05-18T19:38:49.986Z,3.7
2019-05-18T19:40:50.025Z,3.8
2019-05-18T19:42:50.093Z,3.8
2019-05-18T19:44:50.127Z,3.8
2019-05-18T19:46:50.306Z,3.8
2019-05-18T19:48:50.432Z,3.8
2019-05-18T19:50:50.490Z,3.7
2019-05-18T19:52:49.675Z,3.7
2019-05-18T19:54:49.721Z,3.9
2019-05-18T19:56:50.538Z,3.9
2019-05-18T19:58:50.237Z,4.0
2019-05-18T20:00:50.287Z,4.3
2019-05-18T20:02:50.391Z,3.9
2019-05-18T20:05:07.044Z,3.9
2019-05-18T20:06:49.620Z,4.5
2019-05-18T20:08:49.641Z,4.6
2019-05-18T20:10:49.660Z,5.1
2019-05-18T20:12:49.715Z,4.9
2019-05-18T20:14:49.704Z,4.9
2019-05-18T20:16:49.996Z,4.6
2019-05-18T20:18:50.172Z,4.8
2019-05-18T20:20:50.216Z,5.4
2019-05-18T20:22:50.236Z,5.5
2019-05-18T20:24:50.250Z,5.5
2019-05-18T20:26:50.516Z,5.5
2019-05-18T20:28:49.622Z,5.7
2019-05-18T20:30:49.614Z,5.6
2019-05-18T20:32:49.766Z,5.6
2019-05-18T20:34:50.192Z,5.6
2019-05-18T20:36:49.529Z,5.8
2019-05-18T20:38:49.515Z,5.7
2019-05-18T20:40:49.546Z,5.8
2019-05-18T20:42:49.590Z,5.8
2019-05-18T20:44:49.611Z,5.9
2019-05-18T20:46:49.862Z,5.8
2019-05-18T20:48:49.812Z,5.8
2019-05-18T20:50:49.839Z,6.5
2019-05-18T20:52:49.893Z,6.5
2019-05-18T20:54:49.979Z,6.5
2019-05-18T20:56:50.093Z,7.3
2019-05-18T20:58:50.234Z,7.2
2019-05-18T21:00:50.227Z,7.2
2019-05-18T21:02:50.474Z,6.9
2019-05-18T21:04:49.887Z,7.3
2019-05-18T21:06:50.024Z,7.8
2019-05-18T21:08:50.044Z,7.7
2019-05-18T21:10:50.191Z,7.7
2019-05-18T21:12:50.171Z,7.4
2019-05-18T21:14:50.264Z,7.1
2019-05-18T21:16:49.562Z,6.7
2019-05-18T21:18:49.559Z,7.4
2019-05-18T21:20:49.662Z,7.4
2019-05-18T21:22:49.631Z,7.4
2019-05-18T21:24:49.690Z,7.5
2019-05-18T21:26:49.831Z,7.5
2019-05-18T21:29:00.601Z,7.5
2019-05-18T21:30:50.031Z,6.7
2019-05-18T21:32:50.152Z,6.3
2019-05-18T21:34:49.571Z,6.6
2019-05-18T21:36:49.743Z,6.3
2019-05-18T21:38:49.717Z,6.4
2019-05-18T21:40:49.737Z,6.4
2019-05-18T21:42:49.922Z,6.2
2019-05-18T21:44:50.042Z,5.8
2019-05-18T21:46:50.197Z,5.8
2019-05-18T21:48:50.212Z,5.9
2019-05-18T21:50:50.317Z,5.7
2019-05-18T21:52:50.306Z,5.5
2019-05-18T21:54:50.324Z,5.0
2019-05-18T21:56:49.639Z,5.2
2019-05-18T21:58:49.633Z,5.2
2019-05-18T22:00:49.658Z,4.8
2019-05-18T22:02:49.663Z,4.7
2019-05-18T22:04:50.125Z,4.5
2019-05-18T22:06:50.203Z,4.9
2019-05-18T22:08:50.221Z,4.9
2019-05-18T22:10:50.348Z,4.9
2019-05-18T22:12:50.343Z,4.6
2019-05-18T22:14:50.394Z,4.6
2019-05-18T22:16:49.687Z,4.7
2019-05-18T22:18:49.728Z,4.7
2019-05-18T22:20:49.766Z,4.8
2019-05-18T22:22:49.726Z,4.8
2019-05-18T22:24:49.745Z,5.0
2019-05-18T22:26:49.936Z,5.0
2019-05-18T22:28:50.006Z,5.2
2019-05-18T22:30:50.041Z,5.3
2019-05-18T22:32:50.016Z,5.0
2019-05-18T22:34:49.530Z,4.8
2019-05-18T22:36:49.720Z,4.8
2019-05-18T22:38:49.841Z,4.8
2019-05-18T22:40:49.911Z,5.2
2019-05-18T22:42:49.970Z,5.0
2019-05-18T22:44:49.945Z,5.2
2019-05-18T22:46:50.035Z,5.2
2019-05-18T22:48:50.136Z,5.3
2019-05-18T22:50:50.174Z,5.2
2019-05-18T22:52:50.212Z,5.6
2019-05-18T22:54:50.239Z,5.6
2019-05-18T22:56:50.470Z,5.5
2019-05-18T22:58:49.670Z,5.5
2019-05-18T23:00:49.688Z,5.4
2019-05-18T23:02:49.716Z,5.4
2019-05-18T23:04:50.194Z,5.4
2019-05-18T23:06:50.429Z,5.3
2019-05-18T23:08:50.399Z,5.5
2019-05-18T23:10:50.392Z,5.7
2019-05-18T23:12:50.442Z,6.0
2019-05-18T23:14:50.430Z,5.6
2019-05-18T23:16:49.626Z,5.6
2019-05-18T23:18:57.436Z,5.6
2019-05-18T23:20:50.426Z,5.8
2019-05-18T23:22:49.630Z,5.8
2019-05-18T23:24:49.623Z,5.8
2019-05-18T23:26:49.708Z,5.7
2019-05-18T23:28:49.815Z,5.7
2019-05-18T23:30:49.861Z,5.7
2019-05-18T23:32:50.808Z,5.7
2019-05-18T23:34:50.247Z,5.4
2019-05-18T23:36:50.467Z,5.4
2019-05-18T23:38:49.542Z,5.5
2019-05-18T23:40:49.613Z,5.8
2019-05-18T23:42:49.683Z,6.1
2019-05-18T23:44:49.715Z,6.1
2019-05-18T23:46:49.823Z,6.3
2019-05-18T23:48:49.838Z,5.8
2019-05-18T23:50:49.822Z,6.0
2019-05-18T23:52:49.883Z,5.9
2019-05-18T23:54:49.874Z,5.7
2019-05-18T23:56:49.978Z,5.7
2019-05-18T23:58:50.041Z,6.0
